sensor_id;sensor_type;location;lat;lon;timestamp;pressure;altitude;pressure_sealevel;temperature;humidity
57572;BME280;44459;43.522;24.470;2022-11-20T00:01:33;99593.38;;;8.94;100.00
57572;BME280;44459;43.522;24.470;2022-11-20T00:03:59;99598.66;;;8.95;100.00
57572;BME280;44459;43.522;24.470;2022-11-20T00:06:26;99597.78;;;8.98;100.00
57572;BME280;44459;43.522;24.470;2022-11-20T00:08:54;99592.50;;;8.96;100.00
57572;BME280;44459;43.522;24.470;2022-11-20T00:11:22;99596.91;;;9.00;100.00
57572;BME280;44459;43.522;24.470;2022-11-20T00:13:51;99603.94;;;9.07;100.00
57572;BME280;44459;43.522;24.470;2022-11-20T00:16:20;99607.44;;;9.11;100.00
57572;BME280;44459;43.522;24.470;2022-11-20T00:18:46;99600.44;;;9.15;100.00
57572;BME280;44459;43.522;24.470;2022-11-20T00:21:17;99608.34;;;9.21;100.00
57572;BME280;44459;43.522;24.470;2022-11-20T00:23:43;99597.81;;;9.25;100.00
57572;BME280;44459;43.522;24.470;2022-11-20T00:26:12;99582.91;;;9.26;100.00
57572;BME280;44459;43.522;24.470;2022-11-20T00:28:38;99579.38;;;9.21;100.00
57572;BME280;44459;43.522;24.470;2022-11-20T00:31:08;99574.09;;;9.27;100.00
57572;BME280;44459;43.522;24.470;2022-11-20T00:33:35;99563.56;;;9.27;100.00
57572;BME280;44459;43.522;24.470;2022-11-20T00:36:11;99565.31;;;9.34;100.00
57572;BME280;44459;43.522;24.470;2022-11-20T00:38:37;99566.22;;;9.36;100.00
57572;BME280;44459;43.522;24.470;2022-11-20T00:41:11;99591.69;;;9.43;100.00
57572;BME280;44459;43.522;24.470;2022-11-20T00:43:37;99579.38;;;9.45;100.00
57572;BME280;44459;43.522;24.470;2022-11-20T00:46:08;99589.03;;;9.52;100.00
57572;BME280;44459;43.522;24.470;2022-11-20T00:48:34;99593.41;;;9.54;100.00
57572;BME280;44459;43.522;24.470;2022-11-20T00:51:00;99592.56;;;9.54;100.00
57572;BME280;44459;43.522;24.470;2022-11-20T00:53:26;99603.09;;;9.60;100.00
57572;BME280;44459;43.522;24.470;2022-11-20T00:55:59;99603.97;;;9.65;100.00
57572;BME280;44459;43.522;24.470;2022-11-20T00:58:31;99589.94;;;9.60;100.00
57572;BME280;44459;43.522;24.470;2022-11-20T01:03:27;99593.41;;;9.65;100.00
57572;BME280;44459;43.522;24.470;2022-11-20T01:05:53;99575.88;;;9.67;100.00
57572;BME280;44459;43.522;24.470;2022-11-20T01:08:18;99582.00;;;9.63;100.00
57572;BME280;44459;43.522;24.470;2022-11-20T01:10:43;99575.00;;;9.68;100.00
57572;BME280;44459;43.522;24.470;2022-11-20T01:13:09;99575.88;;;9.59;100.00
57572;BME280;44459;43.522;24.470;2022-11-20T01:15:53;99570.59;;;9.59;100.00
57572;BME280;44459;43.522;24.470;2022-11-20T01:18:18;99565.34;;;9.50;100.00
57572;BME280;44459;43.522;24.470;2022-11-20T01:20:44;99561.84;;;9.44;100.00
57572;BME280;44459;43.522;24.470;2022-11-20T01:23:09;99579.38;;;9.42;100.00
57572;BME280;44459;43.522;24.470;2022-11-20T01:25:34;99567.97;;;9.44;100.00
57572;BME280;44459;43.522;24.470;2022-11-20T01:28:00;99563.59;;;9.51;100.00
57572;BME280;44459;43.522;24.470;2022-11-20T01:30:25;99567.97;;;9.50;100.00
57572;BME280;44459;43.522;24.470;2022-11-20T01:32:51;99572.38;;;9.50;100.00
57572;BME280;44459;43.522;24.470;2022-11-20T01:35:16;99559.19;;;9.48;100.00
57572;BME280;44459;43.522;24.470;2022-11-20T01:37:41;99566.22;;;9.57;100.00
57572;BME280;44459;43.522;24.470;2022-11-20T01:40:07;99559.19;;;9.60;100.00
57572;BME280;44459;43.522;24.470;2022-11-20T01:42:33;99553.03;;;9.57;100.00
57572;BME280;44459;43.522;24.470;2022-11-20T01:48:13;99537.25;;;9.42;100.00
57572;BME280;44459;43.522;24.470;2022-11-20T01:50:40;99532.84;;;9.41;100.00
57572;BME280;44459;43.522;24.470;2022-11-20T01:53:08;99527.59;;;9.44;100.00
57572;BME280;44459;43.522;24.470;2022-11-20T01:55:40;99535.47;;;9.50;100.00
57572;BME280;44459;43.522;24.470;2022-11-20T01:58:06;99522.31;;;9.48;100.00
57572;BME280;44459;43.522;24.470;2022-11-20T02:00:32;99543.38;;;9.48;100.00
57572;BME280;44459;43.522;24.470;2022-11-20T02:03:00;99517.94;;;9.47;100.00
57572;BME280;44459;43.522;24.470;2022-11-20T02:05:41;99511.78;;;9.35;100.00
57572;BME280;44459;43.522;24.470;2022-11-20T02:08:09;99501.25;;;9.44;100.00
57572;BME280;44459;43.522;24.470;2022-11-20T02:10:35;99513.53;;;9.43;100.00
57572;BME280;44459;43.522;24.470;2022-11-20T02:13:01;99501.25;;;9.47;100.00
57572;BME280;44459;43.522;24.470;2022-11-20T02:15:45;99495.09;;;9.43;100.00
57572;BME280;44459;43.522;24.470;2022-11-20T02:18:11;99510.88;;;9.45;100.00
57572;BME280;44459;43.522;24.470;2022-11-20T02:20:41;99510.91;;;9.42;100.00
57572;BME280;44459;43.522;24.470;2022-11-20T02:23:16;99503.88;;;9.42;100.00
57572;BME280;44459;43.522;24.470;2022-11-20T02:25:45;99514.41;;;9.50;100.00
57572;BME280;44459;43.522;24.470;2022-11-20T02:28:12;99522.28;;;9.51;100.00
57572;BME280;44459;43.522;24.470;2022-11-20T02:30:38;99506.50;;;9.57;100.00
57572;BME280;44459;43.522;24.470;2022-11-20T02:33:04;99516.13;;;9.58;100.00
57572;BME280;44459;43.522;24.470;2022-11-20T02:37:56;99522.28;;;9.68;100.00
57572;BME280;44459;43.522;24.470;2022-11-20T02:40:22;99521.38;;;9.72;100.00
57572;BME280;44459;43.522;24.470;2022-11-20T02:42:51;99546.91;;;9.61;100.00
57572;BME280;44459;43.522;24.470;2022-11-20T02:45:17;99551.25;;;9.54;100.00
57572;BME280;44459;43.522;24.470;2022-11-20T02:47:42;99559.19;;;9.57;100.00
57572;BME280;44459;43.522;24.470;2022-11-20T02:50:08;99557.44;;;9.64;100.00
57572;BME280;44459;43.522;24.470;2022-11-20T02:52:33;99547.78;;;9.49;100.00
57572;BME280;44459;43.522;24.470;2022-11-20T02:54:59;99561.81;;;9.48;100.00
57572;BME280;44459;43.522;24.470;2022-11-20T02:57:24;99557.44;;;9.53;100.00
57572;BME280;44459;43.522;24.470;2022-11-20T02:59:49;99562.69;;;9.56;100.00
57572;BME280;44459;43.522;24.470;2022-11-20T03:02:15;99568.84;;;9.43;100.00
57572;BME280;44459;43.522;24.470;2022-11-20T03:04:40;99572.38;;;9.47;100.00
57572;BME280;44459;43.522;24.470;2022-11-20T03:07:07;99573.25;;;9.50;100.00
57572;BME280;44459;43.522;24.470;2022-11-20T03:09:33;99589.94;;;9.49;100.00
57572;BME280;44459;43.522;24.470;2022-11-20T03:11:58;99616.25;;;9.42;100.00
57572;BME280;44459;43.522;24.470;2022-11-20T03:14:23;99615.38;;;9.41;100.00
57572;BME280;44459;43.522;24.470;2022-11-20T03:16:49;99603.09;;;9.33;100.00
57572;BME280;44459;43.522;24.470;2022-11-20T03:19:14;99619.75;;;9.38;100.00
57572;BME280;44459;43.522;24.470;2022-11-20T03:21:40;99620.66;;;9.37;100.00
57572;BME280;44459;43.522;24.470;2022-11-20T03:24:06;99618.91;;;9.40;100.00
57572;BME280;44459;43.522;24.470;2022-11-20T03:26:31;99607.50;;;9.43;100.00
57572;BME280;44459;43.522;24.470;2022-11-20T03:29:00;99623.28;;;9.46;100.00
57572;BME280;44459;43.522;24.470;2022-11-20T03:31:28;99632.94;;;9.41;100.00
57572;BME280;44459;43.522;24.470;2022-11-20T03:33:55;99638.19;;;9.41;100.00
57572;BME280;44459;43.522;24.470;2022-11-20T03:36:21;99634.66;;;9.24;100.00
57572;BME280;44459;43.522;24.470;2022-11-20T03:38:48;99633.81;;;9.25;100.00
57572;BME280;44459;43.522;24.470;2022-11-20T03:41:17;99639.06;;;9.31;100.00
57572;BME280;44459;43.522;24.470;2022-11-20T03:43:56;99636.44;;;9.32;100.00
57572;BME280;44459;43.522;24.470;2022-11-20T03:46:22;99634.69;;;9.28;100.00
57572;BME280;44459;43.522;24.470;2022-11-20T03:48:48;99646.09;;;9.32;100.00
57572;BME280;44459;43.522;24.470;2022-11-20T03:51:14;99654.91;;;9.40;100.00
57572;BME280;44459;43.522;24.470;2022-11-20T03:53:42;99647.88;;;9.33;100.00
57572;BME280;44459;43.522;24.470;2022-11-20T03:56:08;99653.09;;;9.12;100.00
57572;BME280;44459;43.522;24.470;2022-11-20T03:58:35;99667.16;;;9.18;100.00
57572;BME280;44459;43.522;24.470;2022-11-20T04:03:34;99673.28;;;9.14;100.00
57572;BME280;44459;43.522;24.470;2022-11-20T04:06:06;99661.84;;;9.14;100.00
57572;BME280;44459;43.522;24.470;2022-11-20T04:08:32;99679.41;;;9.15;100.00
57572;BME280;44459;43.522;24.470;2022-11-20T04:11:09;99679.41;;;9.05;100.00
57572;BME280;44459;43.522;24.470;2022-11-20T04:13:34;99695.19;;;9.07;100.00
57572;BME280;44459;43.522;24.470;2022-11-20T04:16:00;99694.31;;;9.03;100.00
57572;BME280;44459;43.522;24.470;2022-11-20T04:18:25;99703.00;;;8.84;100.00
57572;BME280;44459;43.522;24.470;2022-11-20T04:20:50;99713.50;;;8.77;100.00
57572;BME280;44459;43.522;24.470;2022-11-20T04:23:16;99703.78;;;8.68;100.00
57572;BME280;44459;43.522;24.470;2022-11-20T04:25:41;99705.56;;;8.69;100.00
57572;BME280;44459;43.522;24.470;2022-11-20T04:28:06;99731.03;;;8.76;100.00
57572;BME280;44459;43.522;24.470;2022-11-20T04:30:32;99725.75;;;8.72;100.00
57572;BME280;44459;43.522;24.470;2022-11-20T04:32:57;99720.41;;;8.56;100.00
57572;BME280;44459;43.522;24.470;2022-11-20T04:35:23;99718.53;;;8.39;100.00
57572;BME280;44459;43.522;24.470;2022-11-20T04:37:51;99730.78;;;8.34;100.00
57572;BME280;44459;43.522;24.470;2022-11-20T04:40:16;99721.91;;;8.21;100.00
57572;BME280;44459;43.522;24.470;2022-11-20T04:42:42;99719.31;;;8.26;100.00
57572;BME280;44459;43.522;24.470;2022-11-20T04:45:08;99736.69;;;8.10;100.00
57572;BME280;44459;43.522;24.470;2022-11-20T04:47:33;99754.16;;;8.00;100.00
57572;BME280;44459;43.522;24.470;2022-11-20T04:49:58;99755.88;;;7.98;100.00
57572;BME280;44459;43.522;24.470;2022-11-20T04:52:24;99747.13;;;7.98;100.00
57572;BME280;44459;43.522;24.470;2022-11-20T04:54:49;99736.59;;;7.96;100.00
57572;BME280;44459;43.522;24.470;2022-11-20T04:57:18;99758.44;;;7.89;100.00
57572;BME280;44459;43.522;24.470;2022-11-20T04:59:43;99740.09;;;7.94;100.00
57572;BME280;44459;43.522;24.470;2022-11-20T05:02:09;99720.84;;;7.98;100.00
57572;BME280;44459;43.522;24.470;2022-11-20T05:04:35;99726.94;;;7.95;100.00
57572;BME280;44459;43.522;24.470;2022-11-20T05:07:00;99729.66;;;8.04;100.00
57572;BME280;44459;43.522;24.470;2022-11-20T05:09:26;99732.22;;;7.98;100.00
57572;BME280;44459;43.522;24.470;2022-11-20T05:11:51;99731.25;;;7.86;100.00
57572;BME280;44459;43.522;24.470;2022-11-20T05:14:16;99737.41;;;7.89;100.00
57572;BME280;44459;43.522;24.470;2022-11-20T05:16:42;99748.69;;;7.79;100.00
57572;BME280;44459;43.522;24.470;2022-11-20T05:19:07;99742.59;;;7.82;100.00
57572;BME280;44459;43.522;24.470;2022-11-20T05:21:33;99738.19;;;7.79;100.00
57572;BME280;44459;43.522;24.470;2022-11-20T05:23:58;99726.88;;;7.86;100.00
57572;BME280;44459;43.522;24.470;2022-11-20T05:26:24;99740.84;;;7.81;100.00
57572;BME280;44459;43.522;24.470;2022-11-20T05:28:50;99754.72;;;7.71;100.00
57572;BME280;44459;43.522;24.470;2022-11-20T05:31:17;99754.81;;;7.77;100.00
57572;BME280;44459;43.522;24.470;2022-11-20T05:33:44;99755.69;;;7.79;100.00
57572;BME280;44459;43.522;24.470;2022-11-20T05:36:11;99762.66;;;7.75;100.00
57572;BME280;44459;43.522;24.470;2022-11-20T05:38:37;99775.84;;;7.81;100.00
57572;BME280;44459;43.522;24.470;2022-11-20T05:41:16;99775.88;;;7.83;100.00
57572;BME280;44459;43.522;24.470;2022-11-20T05:43:42;99788.19;;;7.87;100.00
57572;BME280;44459;43.522;24.470;2022-11-20T05:46:10;99782.94;;;7.87;100.00
57572;BME280;44459;43.522;24.470;2022-11-20T05:48:37;99786.44;;;7.84;100.00
57572;BME280;44459;43.522;24.470;2022-11-20T05:51:04;99790.75;;;7.82;100.00
57572;BME280;44459;43.522;24.470;2022-11-20T05:53:32;99796.81;;;7.75;100.00
57572;BME280;44459;43.522;24.470;2022-11-20T05:56:05;99812.69;;;7.86;100.00
57572;BME280;44459;43.522;24.470;2022-11-20T05:58:32;99803.09;;;7.89;100.00
57572;BME280;44459;43.522;24.470;2022-11-20T06:01:24;99810.22;;;8.02;100.00
57572;BME280;44459;43.522;24.470;2022-11-20T06:03:50;99810.25;;;8.05;100.00
57572;BME280;44459;43.522;24.470;2022-11-20T06:06:16;99816.41;;;8.04;100.00
57572;BME280;44459;43.522;24.470;2022-11-20T06:08:43;99808.44;;;7.97;100.00
57572;BME280;44459;43.522;24.470;2022-11-20T06:11:10;99791.72;;;7.92;100.00
57572;BME280;44459;43.522;24.470;2022-11-20T06:13:36;99777.81;;;8.02;100.00
57572;BME280;44459;43.522;24.470;2022-11-20T06:16:02;99770.81;;;8.04;100.00
57572;BME280;44459;43.522;24.470;2022-11-20T06:18:28;99802.47;;;8.15;100.00
57572;BME280;44459;43.522;24.470;2022-11-20T06:21:02;99805.03;;;8.07;100.00
57572;BME280;44459;43.522;24.470;2022-11-20T06:23:29;99823.44;;;8.10;100.00
57572;BME280;44459;43.522;24.470;2022-11-20T06:25:55;99827.94;;;8.22;100.00
57572;BME280;44459;43.522;24.470;2022-11-20T06:28:20;99840.19;;;8.23;100.00
57572;BME280;44459;43.522;24.470;2022-11-20T06:30:47;99838.59;;;8.32;100.00
57572;BME280;44459;43.522;24.470;2022-11-20T06:33:12;99845.63;;;8.35;100.00
57572;BME280;44459;43.522;24.470;2022-11-20T06:35:38;99837.81;;;8.42;100.00
57572;BME280;44459;43.522;24.470;2022-11-20T06:38:03;99823.00;;;8.53;100.00
57572;BME280;44459;43.522;24.470;2022-11-20T06:40:28;99830.97;;;8.64;100.00
57572;BME280;44459;43.522;24.470;2022-11-20T06:42:54;99810.81;;;8.69;100.00
57572;BME280;44459;43.522;24.470;2022-11-20T06:45:20;99811.72;;;8.74;100.00
57572;BME280;44459;43.522;24.470;2022-11-20T06:47:46;99826.72;;;8.89;100.00
57572;BME280;44459;43.522;24.470;2022-11-20T06:50:11;99830.28;;;8.95;100.00
57572;BME280;44459;43.522;24.470;2022-11-20T06:52:36;99858.34;;;8.96;100.00
57572;BME280;44459;43.522;24.470;2022-11-20T06:55:02;99854.88;;;8.97;100.00
57572;BME280;44459;43.522;24.470;2022-11-20T06:57:27;99860.16;;;9.02;100.00
57572;BME280;44459;43.522;24.470;2022-11-20T06:59:53;99864.56;;;9.07;100.00
57572;BME280;44459;43.522;24.470;2022-11-20T07:02:18;99859.34;;;9.14;100.00
57572;BME280;44459;43.522;24.470;2022-11-20T07:04:44;99861.97;;;9.17;100.00
57572;BME280;44459;43.522;24.470;2022-11-20T07:07:09;99855.84;;;9.15;100.00
57572;BME280;44459;43.522;24.470;2022-11-20T07:09:34;99865.53;;;9.22;100.00
57572;BME280;44459;43.522;24.470;2022-11-20T07:12:00;99860.28;;;9.28;100.00
57572;BME280;44459;43.522;24.470;2022-11-20T07:14:25;99860.31;;;9.32;100.00
57572;BME280;44459;43.522;24.470;2022-11-20T07:16:51;99858.59;;;9.39;100.00
57572;BME280;44459;43.522;24.470;2022-11-20T07:19:16;99865.63;;;9.38;100.00
57572;BME280;44459;43.522;24.470;2022-11-20T07:21:41;99865.66;;;9.43;100.00
57572;BME280;44459;43.522;24.470;2022-11-20T07:24:07;99862.16;;;9.47;100.00
57572;BME280;44459;43.522;24.470;2022-11-20T07:26:32;99862.16;;;9.50;100.00
57572;BME280;44459;43.522;24.470;2022-11-20T07:28:58;99866.59;;;9.54;100.00
57572;BME280;44459;43.522;24.470;2022-11-20T07:31:23;99865.69;;;9.50;100.00
57572;BME280;44459;43.522;24.470;2022-11-20T07:33:49;99875.34;;;9.50;100.00
57572;BME280;44459;43.522;24.470;2022-11-20T07:36:14;99873.59;;;9.52;100.00
57572;BME280;44459;43.522;24.470;2022-11-20T07:38:39;99867.47;;;9.56;100.00
57572;BME280;44459;43.522;24.470;2022-11-20T07:41:05;99874.47;;;9.51;100.00
57572;BME280;44459;43.522;24.470;2022-11-20T07:43:30;99875.34;;;9.50;100.00
57572;BME280;44459;43.522;24.470;2022-11-20T07:45:57;99858.69;;;9.57;100.00
57572;BME280;44459;43.522;24.470;2022-11-20T07:48:23;99864.84;;;9.60;100.00
57572;BME280;44459;43.522;24.470;2022-11-20T07:50:49;99859.59;;;9.67;100.00
57572;BME280;44459;43.522;24.470;2022-11-20T07:53:14;99836.78;;;9.76;100.00
57572;BME280;44459;43.522;24.470;2022-11-20T07:55:46;99841.19;;;9.74;100.00
57572;BME280;44459;43.522;24.470;2022-11-20T07:58:11;99848.22;;;9.80;100.00
57572;BME280;44459;43.522;24.470;2022-11-20T08:00:36;99852.63;;;9.81;100.00
57572;BME280;44459;43.522;24.470;2022-11-20T08:03:05;99853.50;;;9.84;100.00
57572;BME280;44459;43.522;24.470;2022-11-20T08:05:31;99851.75;;;9.86;100.00
57572;BME280;44459;43.522;24.470;2022-11-20T08:07:56;99845.63;;;9.89;100.00
57572;BME280;44459;43.522;24.470;2022-11-20T08:10:21;99839.44;;;9.90;100.00
57572;BME280;44459;43.522;24.470;2022-11-20T08:12:52;99826.28;;;9.93;100.00
57572;BME280;44459;43.522;24.470;2022-11-20T08:15:38;99813.09;;;9.91;100.00
57572;BME280;44459;43.522;24.470;2022-11-20T08:18:11;99830.69;;;9.95;100.00
57572;BME280;44459;43.522;24.470;2022-11-20T08:20:37;99820.13;;;10.00;100.00
57572;BME280;44459;43.522;24.470;2022-11-20T08:23:04;99822.78;;;9.98;100.00
57572;BME280;44459;43.522;24.470;2022-11-20T08:25:35;99814.84;;;9.97;100.00
57572;BME280;44459;43.522;24.470;2022-11-20T08:28:04;99815.75;;;9.94;100.00
57572;BME280;44459;43.522;24.470;2022-11-20T08:30:31;99828.94;;;9.99;100.00
57572;BME280;44459;43.522;24.470;2022-11-20T08:33:01;99832.47;;;9.99;100.00
57572;BME280;44459;43.522;24.470;2022-11-20T08:35:27;99857.06;;;10.04;100.00
57572;BME280;44459;43.522;24.470;2022-11-20T08:37:52;99844.78;;;10.06;100.00
57572;BME280;44459;43.522;24.470;2022-11-20T08:40:18;99838.59;;;10.13;100.00
57572;BME280;44459;43.522;24.470;2022-11-20T08:42:50;99836.03;;;10.17;100.00
57572;BME280;44459;43.522;24.470;2022-11-20T08:45:17;99825.50;;;10.17;100.00
57572;BME280;44459;43.522;24.470;2022-11-20T08:47:43;99821.09;;;10.23;100.00
57572;BME280;44459;43.522;24.470;2022-11-20T08:50:13;99826.38;;;10.26;100.00
57572;BME280;44459;43.522;24.470;2022-11-20T08:52:39;99818.44;;;10.28;100.00
57572;BME280;44459;43.522;24.470;2022-11-20T08:55:06;99812.28;;;10.24;100.00
57572;BME280;44459;43.522;24.470;2022-11-20T08:57:36;99814.03;;;10.28;100.00
57572;BME280;44459;43.522;24.470;2022-11-20T09:00:04;99810.53;;;10.25;100.00
57572;BME280;44459;43.522;24.470;2022-11-20T09:02:29;99790.31;;;10.27;100.00
57572;BME280;44459;43.522;24.470;2022-11-20T09:04:55;99801.75;;;10.27;100.00
57572;BME280;44459;43.522;24.470;2022-11-20T09:07:20;99802.59;;;10.28;100.00
57572;BME280;44459;43.522;24.470;2022-11-20T09:09:46;99791.19;;;10.32;100.00
57572;BME280;44459;43.522;24.470;2022-11-20T09:12:11;99785.03;;;10.33;100.00
57572;BME280;44459;43.522;24.470;2022-11-20T09:14:37;99771.84;;;10.36;100.00
57572;BME280;44459;43.522;24.470;2022-11-20T09:17:02;99764.81;;;10.41;100.00
57572;BME280;44459;43.522;24.470;2022-11-20T09:19:27;99771.81;;;10.45;100.00
57572;BME280;44459;43.522;24.470;2022-11-20T09:21:53;99778.88;;;10.46;100.00
57572;BME280;44459;43.522;24.470;2022-11-20T09:24:19;99775.34;;;10.42;100.00
57572;BME280;44459;43.522;24.470;2022-11-20T09:26:46;99768.31;;;10.41;100.00
57572;BME280;44459;43.522;24.470;2022-11-20T09:29:11;99774.47;;;10.43;100.00
57572;BME280;44459;43.522;24.470;2022-11-20T09:31:37;99767.44;;;10.38;100.00
57572;BME280;44459;43.522;24.470;2022-11-20T09:34:02;99771.81;;;10.42;100.00
57572;BME280;44459;43.522;24.470;2022-11-20T09:36:28;99773.59;;;10.46;100.00
57572;BME280;44459;43.522;24.470;2022-11-20T09:38:53;99773.59;;;10.53;100.00
57572;BME280;44459;43.522;24.470;2022-11-20T09:44:40;99759.50;;;10.65;100.00
57572;BME280;44459;43.522;24.470;2022-11-20T09:47:27;99761.22;;;10.69;100.00
57572;BME280;44459;43.522;24.470;2022-11-20T09:55:31;99765.63;;;10.76;100.00
57572;BME280;44459;43.522;24.470;2022-11-20T09:57:57;99758.59;;;10.74;100.00
57572;BME280;44459;43.522;24.470;2022-11-20T10:00:24;99759.47;;;10.74;100.00
57572;BME280;44459;43.522;24.470;2022-11-20T10:05:59;99760.38;;;10.64;100.00
57572;BME280;44459;43.522;24.470;2022-11-20T10:08:36;99747.19;;;10.56;100.00
57572;BME280;44459;43.522;24.470;2022-11-20T10:25:20;99837.78;;;10.71;100.00
57572;BME280;44459;43.522;24.470;2022-11-20T10:28:06;99870.34;;;10.57;100.00
57572;BME280;44459;43.522;24.470;2022-11-20T10:30:41;99878.28;;;10.44;100.00
57572;BME280;44459;43.522;24.470;2022-11-20T10:35:50;99844.84;;;10.37;100.00
57572;BME280;44459;43.522;24.470;2022-11-20T10:38:24;99841.31;;;10.44;100.00
57572;BME280;44459;43.522;24.470;2022-11-20T10:40:54;99851.88;;;10.47;100.00
57572;BME280;44459;43.522;24.470;2022-11-20T10:43:46;99836.91;;;10.49;100.00
57572;BME280;44459;43.522;24.470;2022-11-20T10:46:16;99834.28;;;10.52;100.00
57572;BME280;44459;43.522;24.470;2022-11-20T10:48:44;99825.47;;;10.62;100.00
57572;BME280;44459;43.522;24.470;2022-11-20T10:51:37;99752.47;;;10.56;100.00
57572;BME280;44459;43.522;24.470;2022-11-20T11:00:09;99795.56;;;10.63;100.00
57572;BME280;44459;43.522;24.470;2022-11-20T11:02:49;99789.41;;;10.67;100.00
57572;BME280;44459;43.522;24.470;2022-11-20T11:08:11;99745.44;;;10.45;100.00
57572;BME280;44459;43.522;24.470;2022-11-20T11:10:57;99740.16;;;10.39;100.00
57572;BME280;44459;43.522;24.470;2022-11-20T11:15:49;99720.84;;;10.35;100.00
57572;BME280;44459;43.522;24.470;2022-11-20T11:20:50;99722.59;;;10.32;100.00
57572;BME280;44459;43.522;24.470;2022-11-20T11:23:42;99729.63;;;10.31;100.00
57572;BME280;44459;43.522;24.470;2022-11-20T11:26:34;99740.16;;;10.42;100.00
57572;BME280;44459;43.522;24.470;2022-11-20T11:29:02;99716.44;;;10.33;100.00
57572;BME280;44459;43.522;24.470;2022-11-20T11:31:35;99722.63;;;10.27;100.00
57572;BME280;44459;43.522;24.470;2022-11-20T11:34:26;99718.19;;;10.28;100.00
57572;BME280;44459;43.522;24.470;2022-11-20T11:37:01;99699.69;;;10.41;100.00
57572;BME280;44459;43.522;24.470;2022-11-20T11:39:30;99711.19;;;10.34;100.00
57572;BME280;44459;43.522;24.470;2022-11-20T11:41:57;99720.84;;;10.25;100.00
57572;BME280;44459;43.522;24.470;2022-11-20T11:44:30;99719.97;;;10.30;100.00
57572;BME280;44459;43.522;24.470;2022-11-20T11:47:24;99712.91;;;10.41;100.00
57572;BME280;44459;43.522;24.470;2022-11-20T11:55:12;99691.78;;;10.58;100.00
57572;BME280;44459;43.522;24.470;2022-11-20T11:57:50;99701.41;;;10.67;100.00
57572;BME280;44459;43.522;24.470;2022-11-20T12:00:19;99693.47;;;10.70;100.00
57572;BME280;44459;43.522;24.470;2022-11-20T12:10:20;99711.13;;;10.54;100.00
57572;BME280;44459;43.522;24.470;2022-11-20T12:13:01;99712.91;;;10.35;100.00
57572;BME280;44459;43.522;24.470;2022-11-20T12:15:32;99713.81;;;10.21;100.00
57572;BME280;44459;43.522;24.470;2022-11-20T12:17:58;99718.22;;;10.14;100.00
57572;BME280;44459;43.522;24.470;2022-11-20T12:20:29;99709.41;;;10.12;100.00
57572;BME280;44459;43.522;24.470;2022-11-20T12:23:25;99691.84;;;10.06;100.00
57572;BME280;44459;43.522;24.470;2022-11-20T12:25:56;99693.63;;;10.17;100.00
57572;BME280;44459;43.522;24.470;2022-11-20T12:34:17;99700.63;;;10.27;100.00
57572;BME280;44459;43.522;24.470;2022-11-20T12:39:58;99719.97;;;10.30;100.00
57572;BME280;44459;43.522;24.470;2022-11-20T12:45:28;99739.25;;;10.52;100.00
57572;BME280;44459;43.522;24.470;2022-11-20T12:48:33;99709.34;;;10.59;100.00
57572;BME280;44459;43.522;24.470;2022-11-20T12:51:21;99741.94;;;10.55;100.00
57572;BME280;44459;43.522;24.470;2022-11-20T13:05:01;99765.59;;;10.85;100.00
57572;BME280;44459;43.522;24.470;2022-11-20T13:07:30;99803.47;;;10.77;100.00
57572;BME280;44459;43.522;24.470;2022-11-20T13:09:58;99822.84;;;10.79;100.00
57572;BME280;44459;43.522;24.470;2022-11-20T13:12:33;99814.03;;;10.83;100.00
57572;BME280;44459;43.522;24.470;2022-11-20T13:17:50;99791.16;;;10.59;100.00
57572;BME280;44459;43.522;24.470;2022-11-20T13:20:18;99799.97;;;10.56;100.00
57572;BME280;44459;43.522;24.470;2022-11-20T13:22:48;99807.00;;;10.57;100.00
57572;BME280;44459;43.522;24.470;2022-11-20T13:25:33;99794.69;;;10.69;100.00
57572;BME280;44459;43.522;24.470;2022-11-20T13:28:03;99770.03;;;10.67;100.00
57572;BME280;44459;43.522;24.470;2022-11-20T13:30:30;99773.59;;;10.55;100.00
57572;BME280;44459;43.522;24.470;2022-11-20T13:33:04;99804.38;;;10.51;100.00
57572;BME280;44459;43.522;24.470;2022-11-20T13:35:37;99821.09;;;10.56;100.00
57572;BME280;44459;43.522;24.470;2022-11-20T13:38:06;99827.25;;;10.62;100.00
57572;BME280;44459;43.522;24.470;2022-11-20T13:40:33;99836.94;;;10.61;100.00
57572;BME280;44459;43.522;24.470;2022-11-20T13:43:27;99843.09;;;10.54;100.00
57572;BME280;44459;43.522;24.470;2022-11-20T13:46:01;99836.94;;;10.37;100.00
57572;BME280;44459;43.522;24.470;2022-11-20T13:48:32;99847.47;;;10.37;100.00
57572;BME280;44459;43.522;24.470;2022-11-20T13:56:11;99846.59;;;10.59;100.00
57572;BME280;44459;43.522;24.470;2022-11-20T14:01:28;99804.34;;;10.73;100.00
57572;BME280;44459;43.522;24.470;2022-11-20T14:03:55;99792.03;;;10.72;100.00
57572;BME280;44459;43.522;24.470;2022-11-20T14:06:27;99794.66;;;10.66;100.00
57572;BME280;44459;43.522;24.470;2022-11-20T14:08:54;99781.50;;;10.58;100.00
57572;BME280;44459;43.522;24.470;2022-11-20T14:11:21;99777.97;;;10.53;100.00
57572;BME280;44459;43.522;24.470;2022-11-20T14:16:25;99784.16;;;10.47;100.00
57572;BME280;44459;43.522;24.470;2022-11-20T14:18:51;99785.00;;;10.45;100.00
57572;BME280;44459;43.522;24.470;2022-11-20T14:21:29;99783.28;;;10.47;100.00
57572;BME280;44459;43.522;24.470;2022-11-20T14:24:11;99768.31;;;10.35;100.00
57572;BME280;44459;43.522;24.470;2022-11-20T14:26:41;99763.94;;;10.34;100.00
57572;BME280;44459;43.522;24.470;2022-11-20T14:29:17;99748.09;;;10.28;100.00
57572;BME280;44459;43.522;24.470;2022-11-20T14:31:45;99749.88;;;10.22;100.00
57572;BME280;44459;43.522;24.470;2022-11-20T14:34:26;99736.66;;;10.13;100.00
57572;BME280;44459;43.522;24.470;2022-11-20T14:36:57;99734.03;;;10.19;100.00